sensor_id;sensor_type;location;lat;lon;timestamp;P1;durP1;ratioP1;P2;durP2;ratioP2
43114;SDS011;28727;50.068;14.452;2022-11-11T00:00:11;20.35;;;10.30;;
43114;SDS011;28727;50.068;14.452;2022-11-11T00:03:03;18.23;;;9.55;;
43114;SDS011;28727;50.068;14.452;2022-11-11T00:05:54;17.70;;;10.35;;
43114;SDS011;28727;50.068;14.452;2022-11-11T00:08:48;17.95;;;9.73;;
43114;SDS011;28727;50.068;14.452;2022-11-11T00:11:40;20.80;;;9.45;;
43114;SDS011;28727;50.068;14.452;2022-11-11T00:14:30;17.95;;;9.80;;
43114;SDS011;28727;50.068;14.452;2022-11-11T00:17:20;15.45;;;9.43;;
43114;SDS011;28727;50.068;14.452;2022-11-11T00:20:29;14.90;;;8.75;;
43114;SDS011;28727;50.068;14.452;2022-11-11T00:23:38;16.85;;;9.25;;
43114;SDS011;28727;50.068;14.452;2022-11-11T00:26:47;19.50;;;9.18;;
43114;SDS011;28727;50.068;14.452;2022-11-11T00:29:37;19.25;;;9.55;;
43114;SDS011;28727;50.068;14.452;2022-11-11T00:32:30;15.23;;;9.60;;
43114;SDS011;28727;50.068;14.452;2022-11-11T00:35:22;15.57;;;8.80;;
43114;SDS011;28727;50.068;14.452;2022-11-11T00:38:34;17.63;;;8.85;;
43114;SDS011;28727;50.068;14.452;2022-11-11T00:41:37;15.88;;;9.20;;
43114;SDS011;28727;50.068;14.452;2022-11-11T00:44:27;13.70;;;8.98;;
43114;SDS011;28727;50.068;14.452;2022-11-11T00:47:17;14.73;;;8.07;;
43114;SDS011;28727;50.068;14.452;2022-11-11T00:50:27;14.18;;;8.18;;
43114;SDS011;28727;50.068;14.452;2022-11-11T00:53:36;13.20;;;8.10;;
43114;SDS011;28727;50.068;14.452;2022-11-11T00:56:29;15.35;;;8.15;;
43114;SDS011;28727;50.068;14.452;2022-11-11T00:59:19;14.20;;;7.93;;
43114;SDS011;28727;50.068;14.452;2022-11-11T01:02:09;15.57;;;8.57;;
43114;SDS011;28727;50.068;14.452;2022-11-11T01:04:59;15.27;;;8.63;;
43114;SDS011;28727;50.068;14.452;2022-11-11T01:07:50;15.43;;;9.25;;
43114;SDS011;28727;50.068;14.452;2022-11-11T01:10:41;17.13;;;9.02;;
43114;SDS011;28727;50.068;14.452;2022-11-11T01:13:32;20.63;;;10.00;;
43114;SDS011;28727;50.068;14.452;2022-11-11T01:16:23;14.15;;;8.85;;
43114;SDS011;28727;50.068;14.452;2022-11-11T01:19:15;16.38;;;8.77;;
43114;SDS011;28727;50.068;14.452;2022-11-11T01:22:05;15.18;;;8.93;;
43114;SDS011;28727;50.068;14.452;2022-11-11T01:24:55;14.23;;;8.52;;
43114;SDS011;28727;50.068;14.452;2022-11-11T01:27:46;20.17;;;9.23;;
43114;SDS011;28727;50.068;14.452;2022-11-11T01:30:36;19.98;;;8.43;;
43114;SDS011;28727;50.068;14.452;2022-11-11T01:33:27;17.40;;;9.25;;
43114;SDS011;28727;50.068;14.452;2022-11-11T01:36:19;15.75;;;8.90;;
43114;SDS011;28727;50.068;14.452;2022-11-11T01:39:11;16.55;;;9.40;;
43114;SDS011;28727;50.068;14.452;2022-11-11T01:42:01;18.02;;;9.00;;
43114;SDS011;28727;50.068;14.452;2022-11-11T01:44:52;18.38;;;9.05;;
43114;SDS011;28727;50.068;14.452;2022-11-11T01:47:42;20.85;;;9.75;;
43114;SDS011;28727;50.068;14.452;2022-11-11T01:54:25;18.33;;;9.45;;
43114;SDS011;28727;50.068;14.452;2022-11-11T02:00:20;15.55;;;9.07;;
43114;SDS011;28727;50.068;14.452;2022-11-11T02:03:11;13.52;;;8.52;;
43114;SDS011;28727;50.068;14.452;2022-11-11T02:06:03;18.85;;;9.50;;
43114;SDS011;28727;50.068;14.452;2022-11-11T02:08:53;17.80;;;8.70;;
43114;SDS011;28727;50.068;14.452;2022-11-11T02:11:45;15.77;;;9.32;;
43114;SDS011;28727;50.068;14.452;2022-11-11T02:14:54;17.45;;;9.70;;
43114;SDS011;28727;50.068;14.452;2022-11-11T02:17:48;17.73;;;10.40;;
43114;SDS011;28727;50.068;14.452;2022-11-11T02:20:40;16.08;;;8.98;;
43114;SDS011;28727;50.068;14.452;2022-11-11T02:26:29;17.95;;;9.65;;
43114;SDS011;28727;50.068;14.452;2022-11-11T02:29:23;18.02;;;9.30;;
43114;SDS011;28727;50.068;14.452;2022-11-11T02:32:13;15.98;;;8.95;;
43114;SDS011;28727;50.068;14.452;2022-11-11T02:35:09;16.45;;;9.00;;
43114;SDS011;28727;50.068;14.452;2022-11-11T02:38:03;18.77;;;9.27;;
43114;SDS011;28727;50.068;14.452;2022-11-11T02:40:57;20.15;;;9.65;;
43114;SDS011;28727;50.068;14.452;2022-11-11T02:44:08;15.07;;;8.95;;
43114;SDS011;28727;50.068;14.452;2022-11-11T02:46:58;18.85;;;9.18;;
43114;SDS011;28727;50.068;14.452;2022-11-11T02:49:48;16.58;;;9.50;;
43114;SDS011;28727;50.068;14.452;2022-11-11T02:52:38;14.13;;;8.65;;
43114;SDS011;28727;50.068;14.452;2022-11-11T02:55:29;18.15;;;8.48;;
43114;SDS011;28727;50.068;14.452;2022-11-11T02:58:19;14.23;;;8.45;;
43114;SDS011;28727;50.068;14.452;2022-11-11T03:01:09;17.27;;;9.15;;
43114;SDS011;28727;50.068;14.452;2022-11-11T03:04:00;16.35;;;8.48;;
43114;SDS011;28727;50.068;14.452;2022-11-11T03:06:50;14.35;;;8.18;;
43114;SDS011;28727;50.068;14.452;2022-11-11T03:09:40;15.95;;;8.85;;
43114;SDS011;28727;50.068;14.452;2022-11-11T03:12:31;16.77;;;8.68;;
43114;SDS011;28727;50.068;14.452;2022-11-11T03:15:21;16.92;;;9.05;;
43114;SDS011;28727;50.068;14.452;2022-11-11T03:18:11;16.23;;;8.80;;
43114;SDS011;28727;50.068;14.452;2022-11-11T03:21:02;14.98;;;8.93;;
43114;SDS011;28727;50.068;14.452;2022-11-11T03:24:16;17.92;;;9.30;;
43114;SDS011;28727;50.068;14.452;2022-11-11T03:27:06;16.33;;;8.80;;
43114;SDS011;28727;50.068;14.452;2022-11-11T03:29:56;15.38;;;9.45;;
43114;SDS011;28727;50.068;14.452;2022-11-11T03:32:46;17.42;;;9.32;;
43114;SDS011;28727;50.068;14.452;2022-11-11T03:35:36;14.48;;;8.50;;
43114;SDS011;28727;50.068;14.452;2022-11-11T03:38:27;14.65;;;8.82;;
43114;SDS011;28727;50.068;14.452;2022-11-11T03:41:17;14.77;;;9.13;;
43114;SDS011;28727;50.068;14.452;2022-11-11T03:44:08;15.88;;;8.80;;
43114;SDS011;28727;50.068;14.452;2022-11-11T03:46:58;13.95;;;8.40;;
43114;SDS011;28727;50.068;14.452;2022-11-11T03:49:49;14.85;;;9.27;;
43114;SDS011;28727;50.068;14.452;2022-11-11T03:52:42;14.82;;;9.45;;
43114;SDS011;28727;50.068;14.452;2022-11-11T03:55:36;15.48;;;9.55;;
43114;SDS011;28727;50.068;14.452;2022-11-11T03:58:26;16.45;;;9.85;;
43114;SDS011;28727;50.068;14.452;2022-11-11T04:01:17;18.25;;;8.70;;
43114;SDS011;28727;50.068;14.452;2022-11-11T04:04:25;16.48;;;8.63;;
43114;SDS011;28727;50.068;14.452;2022-11-11T04:07:34;19.60;;;11.65;;
43114;SDS011;28727;50.068;14.452;2022-11-11T04:10:43;15.05;;;8.52;;
43114;SDS011;28727;50.068;14.452;2022-11-11T04:13:34;15.88;;;9.13;;
43114;SDS011;28727;50.068;14.452;2022-11-11T04:16:43;17.23;;;9.38;;
43114;SDS011;28727;50.068;14.452;2022-11-11T04:19:33;17.77;;;9.07;;
43114;SDS011;28727;50.068;14.452;2022-11-11T04:22:42;17.60;;;9.43;;
43114;SDS011;28727;50.068;14.452;2022-11-11T04:25:32;14.45;;;8.48;;
43114;SDS011;28727;50.068;14.452;2022-11-11T04:28:40;13.85;;;8.90;;
43114;SDS011;28727;50.068;14.452;2022-11-11T04:35:07;16.75;;;10.15;;
43114;SDS011;28727;50.068;14.452;2022-11-11T04:37:59;15.88;;;8.98;;
43114;SDS011;28727;50.068;14.452;2022-11-11T04:41:08;15.30;;;9.70;;
43114;SDS011;28727;50.068;14.452;2022-11-11T04:44:00;20.17;;;9.55;;
43114;SDS011;28727;50.068;14.452;2022-11-11T04:47:09;14.20;;;8.07;;
43114;SDS011;28727;50.068;14.452;2022-11-11T04:49:59;16.80;;;9.65;;
43114;SDS011;28727;50.068;14.452;2022-11-11T04:52:56;13.82;;;8.68;;
43114;SDS011;28727;50.068;14.452;2022-11-11T04:55:46;15.75;;;8.90;;
43114;SDS011;28727;50.068;14.452;2022-11-11T04:58:55;15.50;;;9.52;;
43114;SDS011;28727;50.068;14.452;2022-11-11T05:02:04;16.88;;;9.88;;
43114;SDS011;28727;50.068;14.452;2022-11-11T05:05:13;18.05;;;9.55;;
43114;SDS011;28727;50.068;14.452;2022-11-11T05:08:03;14.52;;;9.05;;
43114;SDS011;28727;50.068;14.452;2022-11-11T05:11:12;17.52;;;8.77;;
43114;SDS011;28727;50.068;14.452;2022-11-11T05:14:03;15.68;;;8.50;;
43114;SDS011;28727;50.068;14.452;2022-11-11T05:17:13;16.75;;;9.77;;
43114;SDS011;28727;50.068;14.452;2022-11-11T05:20:21;14.48;;;8.52;;
43114;SDS011;28727;50.068;14.452;2022-11-11T05:23:33;18.42;;;9.00;;
43114;SDS011;28727;50.068;14.452;2022-11-11T05:26:42;17.50;;;8.98;;
43114;SDS011;28727;50.068;14.452;2022-11-11T05:29:33;14.18;;;8.38;;
43114;SDS011;28727;50.068;14.452;2022-11-11T05:32:23;15.18;;;8.70;;
43114;SDS011;28727;50.068;14.452;2022-11-11T05:35:14;19.08;;;9.30;;
43114;SDS011;28727;50.068;14.452;2022-11-11T05:38:05;16.13;;;9.25;;
43114;SDS011;28727;50.068;14.452;2022-11-11T05:41:10;18.85;;;9.30;;
43114;SDS011;28727;50.068;14.452;2022-11-11T05:44:01;15.80;;;9.43;;
43114;SDS011;28727;50.068;14.452;2022-11-11T05:46:51;17.08;;;9.02;;
43114;SDS011;28727;50.068;14.452;2022-11-11T05:49:41;15.60;;;9.30;;
43114;SDS011;28727;50.068;14.452;2022-11-11T05:52:31;18.67;;;11.13;;
43114;SDS011;28727;50.068;14.452;2022-11-11T05:55:22;15.38;;;9.23;;
43114;SDS011;28727;50.068;14.452;2022-11-11T05:58:12;17.20;;;9.02;;
43114;SDS011;28727;50.068;14.452;2022-11-11T06:01:03;16.60;;;9.35;;
43114;SDS011;28727;50.068;14.452;2022-11-11T06:03:54;14.48;;;9.05;;
43114;SDS011;28727;50.068;14.452;2022-11-11T06:06:44;17.90;;;9.85;;
43114;SDS011;28727;50.068;14.452;2022-11-11T06:09:34;18.85;;;9.43;;
43114;SDS011;28727;50.068;14.452;2022-11-11T06:12:24;13.70;;;8.77;;
43114;SDS011;28727;50.068;14.452;2022-11-11T06:15:35;18.60;;;9.25;;
43114;SDS011;28727;50.068;14.452;2022-11-11T06:18:27;15.07;;;8.43;;
43114;SDS011;28727;50.068;14.452;2022-11-11T06:21:20;23.52;;;10.95;;
43114;SDS011;28727;50.068;14.452;2022-11-11T06:24:10;27.60;;;13.50;;
43114;SDS011;28727;50.068;14.452;2022-11-11T06:27:01;22.48;;;11.43;;
43114;SDS011;28727;50.068;14.452;2022-11-11T06:29:51;25.48;;;12.77;;
43114;SDS011;28727;50.068;14.452;2022-11-11T06:32:41;21.58;;;11.20;;
43114;SDS011;28727;50.068;14.452;2022-11-11T06:35:37;21.17;;;10.35;;
43114;SDS011;28727;50.068;14.452;2022-11-11T06:38:32;19.17;;;9.53;;
43114;SDS011;28727;50.068;14.452;2022-11-11T06:41:23;18.00;;;10.25;;
43114;SDS011;28727;50.068;14.452;2022-11-11T06:44:14;19.30;;;10.63;;
43114;SDS011;28727;50.068;14.452;2022-11-11T06:47:04;24.02;;;11.07;;
43114;SDS011;28727;50.068;14.452;2022-11-11T06:49:55;17.50;;;10.60;;
43114;SDS011;28727;50.068;14.452;2022-11-11T06:52:45;18.10;;;10.00;;
43114;SDS011;28727;50.068;14.452;2022-11-11T06:55:35;20.25;;;9.77;;
43114;SDS011;28727;50.068;14.452;2022-11-11T06:58:25;15.27;;;9.15;;
43114;SDS011;28727;50.068;14.452;2022-11-11T07:01:16;16.98;;;9.82;;
43114;SDS011;28727;50.068;14.452;2022-11-11T07:04:06;16.23;;;8.88;;
43114;SDS011;28727;50.068;14.452;2022-11-11T07:06:56;16.45;;;8.90;;
43114;SDS011;28727;50.068;14.452;2022-11-11T07:09:46;15.75;;;9.27;;
43114;SDS011;28727;50.068;14.452;2022-11-11T07:12:39;16.05;;;9.07;;
43114;SDS011;28727;50.068;14.452;2022-11-11T07:15:30;14.90;;;8.15;;
43114;SDS011;28727;50.068;14.452;2022-11-11T07:18:21;13.85;;;8.40;;
43114;SDS011;28727;50.068;14.452;2022-11-11T07:21:12;14.05;;;8.00;;
43114;SDS011;28727;50.068;14.452;2022-11-11T07:24:02;16.40;;;9.23;;
43114;SDS011;28727;50.068;14.452;2022-11-11T07:26:52;22.20;;;9.25;;
43114;SDS011;28727;50.068;14.452;2022-11-11T07:29:42;15.52;;;9.30;;
43114;SDS011;28727;50.068;14.452;2022-11-11T07:32:32;14.70;;;9.05;;
43114;SDS011;28727;50.068;14.452;2022-11-11T07:35:23;17.67;;;9.82;;
43114;SDS011;28727;50.068;14.452;2022-11-11T07:38:13;15.93;;;8.80;;
43114;SDS011;28727;50.068;14.452;2022-11-11T07:41:03;16.58;;;8.73;;
43114;SDS011;28727;50.068;14.452;2022-11-11T07:43:54;13.27;;;9.70;;
43114;SDS011;28727;50.068;14.452;2022-11-11T07:46:44;18.73;;;9.63;;
43114;SDS011;28727;50.068;14.452;2022-11-11T07:49:34;18.75;;;8.90;;
43114;SDS011;28727;50.068;14.452;2022-11-11T07:52:25;18.90;;;9.50;;
43114;SDS011;28727;50.068;14.452;2022-11-11T07:55:15;17.65;;;8.55;;
43114;SDS011;28727;50.068;14.452;2022-11-11T07:58:05;15.07;;;9.15;;
43114;SDS011;28727;50.068;14.452;2022-11-11T08:00:58;17.40;;;9.25;;
43114;SDS011;28727;50.068;14.452;2022-11-11T08:03:56;23.27;;;10.20;;
43114;SDS011;28727;50.068;14.452;2022-11-11T08:06:46;19.08;;;9.80;;
43114;SDS011;28727;50.068;14.452;2022-11-11T08:09:36;20.75;;;9.88;;
43114;SDS011;28727;50.068;14.452;2022-11-11T08:12:27;15.40;;;8.80;;
43114;SDS011;28727;50.068;14.452;2022-11-11T08:15:35;16.90;;;9.20;;
43114;SDS011;28727;50.068;14.452;2022-11-11T08:18:26;13.07;;;8.15;;
43114;SDS011;28727;50.068;14.452;2022-11-11T08:21:17;17.35;;;8.95;;
43114;SDS011;28727;50.068;14.452;2022-11-11T08:24:07;15.38;;;8.18;;
43114;SDS011;28727;50.068;14.452;2022-11-11T08:27:20;15.18;;;8.32;;
43114;SDS011;28727;50.068;14.452;2022-11-11T08:30:11;13.68;;;7.95;;
43114;SDS011;28727;50.068;14.452;2022-11-11T08:33:02;16.30;;;8.48;;
43114;SDS011;28727;50.068;14.452;2022-11-11T08:36:14;15.82;;;8.38;;
43114;SDS011;28727;50.068;14.452;2022-11-11T08:39:11;14.52;;;8.57;;
43114;SDS011;28727;50.068;14.452;2022-11-11T08:42:01;16.30;;;9.23;;
43114;SDS011;28727;50.068;14.452;2022-11-11T08:44:52;18.35;;;8.55;;
43114;SDS011;28727;50.068;14.452;2022-11-11T08:47:43;16.65;;;8.68;;
43114;SDS011;28727;50.068;14.452;2022-11-11T08:50:36;13.20;;;8.40;;
43114;SDS011;28727;50.068;14.452;2022-11-11T08:53:27;13.27;;;9.65;;
43114;SDS011;28727;50.068;14.452;2022-11-11T08:56:18;13.32;;;8.52;;
43114;SDS011;28727;50.068;14.452;2022-11-11T08:59:08;13.13;;;8.13;;
43114;SDS011;28727;50.068;14.452;2022-11-11T09:02:01;17.00;;;9.57;;
43114;SDS011;28727;50.068;14.452;2022-11-11T09:04:51;12.65;;;7.72;;
43114;SDS011;28727;50.068;14.452;2022-11-11T09:07:45;17.58;;;8.65;;
43114;SDS011;28727;50.068;14.452;2022-11-11T09:10:35;15.40;;;9.13;;
43114;SDS011;28727;50.068;14.452;2022-11-11T09:13:26;14.48;;;8.15;;
43114;SDS011;28727;50.068;14.452;2022-11-11T09:16:19;16.23;;;7.90;;
43114;SDS011;28727;50.068;14.452;2022-11-11T09:19:10;17.77;;;8.43;;
43114;SDS011;28727;50.068;14.452;2022-11-11T09:22:00;10.90;;;7.45;;
43114;SDS011;28727;50.068;14.452;2022-11-11T09:24:50;14.00;;;7.78;;
43114;SDS011;28727;50.068;14.452;2022-11-11T09:27:41;16.00;;;8.15;;
43114;SDS011;28727;50.068;14.452;2022-11-11T09:30:31;12.50;;;7.07;;
43114;SDS011;28727;50.068;14.452;2022-11-11T09:33:22;14.60;;;8.00;;
43114;SDS011;28727;50.068;14.452;2022-11-11T09:36:12;11.63;;;8.70;;
43114;SDS011;28727;50.068;14.452;2022-11-11T09:39:03;14.85;;;7.90;;
43114;SDS011;28727;50.068;14.452;2022-11-11T09:41:58;12.20;;;8.23;;
43114;SDS011;28727;50.068;14.452;2022-11-11T09:51:29;13.38;;;7.70;;
43114;SDS011;28727;50.068;14.452;2022-11-11T09:54:34;12.40;;;8.23;;
43114;SDS011;28727;50.068;14.452;2022-11-11T10:00:28;14.30;;;7.57;;
43114;SDS011;28727;50.068;14.452;2022-11-11T10:03:22;17.25;;;8.07;;
43114;SDS011;28727;50.068;14.452;2022-11-11T10:06:20;13.63;;;8.85;;
43114;SDS011;28727;50.068;14.452;2022-11-11T10:09:24;16.23;;;9.60;;
43114;SDS011;28727;50.068;14.452;2022-11-11T10:12:19;14.45;;;8.75;;
43114;SDS011;28727;50.068;14.452;2022-11-11T10:15:14;14.27;;;8.45;;
43114;SDS011;28727;50.068;14.452;2022-11-11T10:21:41;15.15;;;8.68;;
43114;SDS011;28727;50.068;14.452;2022-11-11T10:25:13;17.05;;;9.00;;
43114;SDS011;28727;50.068;14.452;2022-11-11T10:28:16;18.20;;;9.15;;
43114;SDS011;28727;50.068;14.452;2022-11-11T10:31:11;14.98;;;7.60;;
43114;SDS011;28727;50.068;14.452;2022-11-11T10:34:12;13.82;;;8.20;;
43114;SDS011;28727;50.068;14.452;2022-11-11T10:37:24;16.98;;;8.80;;
43114;SDS011;28727;50.068;14.452;2022-11-11T10:40:27;13.38;;;8.02;;
43114;SDS011;28727;50.068;14.452;2022-11-11T10:43:24;16.88;;;8.57;;
43114;SDS011;28727;50.068;14.452;2022-11-11T10:46:20;15.47;;;9.10;;
43114;SDS011;28727;50.068;14.452;2022-11-11T10:49:16;12.10;;;8.23;;
43114;SDS011;28727;50.068;14.452;2022-11-11T10:52:19;16.20;;;8.40;;
43114;SDS011;28727;50.068;14.452;2022-11-11T10:55:28;16.48;;;8.35;;
43114;SDS011;28727;50.068;14.452;2022-11-11T10:58:37;12.90;;;7.95;;
43114;SDS011;28727;50.068;14.452;2022-11-11T11:01:37;16.05;;;8.10;;
43114;SDS011;28727;50.068;14.452;2022-11-11T11:04:49;16.73;;;9.07;;
43114;SDS011;28727;50.068;14.452;2022-11-11T11:07:47;19.95;;;11.27;;
43114;SDS011;28727;50.068;14.452;2022-11-11T11:10:40;18.92;;;12.18;;
43114;SDS011;28727;50.068;14.452;2022-11-11T11:13:42;24.02;;;13.23;;
43114;SDS011;28727;50.068;14.452;2022-11-11T11:16:38;21.73;;;12.60;;
43114;SDS011;28727;50.068;14.452;2022-11-11T11:19:36;18.67;;;11.45;;
43114;SDS011;28727;50.068;14.452;2022-11-11T11:25:53;16.75;;;11.30;;
43114;SDS011;28727;50.068;14.452;2022-11-11T11:28:54;15.30;;;9.60;;
43114;SDS011;28727;50.068;14.452;2022-11-11T11:31:50;19.98;;;8.90;;
43114;SDS011;28727;50.068;14.452;2022-11-11T11:34:46;15.02;;;8.50;;
43114;SDS011;28727;50.068;14.452;2022-11-11T11:37:47;18.80;;;9.95;;
43114;SDS011;28727;50.068;14.452;2022-11-11T11:40:49;12.80;;;8.43;;
43114;SDS011;28727;50.068;14.452;2022-11-11T11:46:36;17.48;;;8.73;;
43114;SDS011;28727;50.068;14.452;2022-11-11T11:52:39;20.38;;;9.32;;
43114;SDS011;28727;50.068;14.452;2022-11-11T11:55:41;16.48;;;9.23;;
43114;SDS011;28727;50.068;14.452;2022-11-11T11:58:51;17.52;;;8.82;;
43114;SDS011;28727;50.068;14.452;2022-11-11T12:08:14;17.48;;;8.23;;
43114;SDS011;28727;50.068;14.452;2022-11-11T12:11:34;15.43;;;8.82;;
43114;SDS011;28727;50.068;14.452;2022-11-11T12:18:15;17.17;;;9.30;;
43114;SDS011;28727;50.068;14.452;2022-11-11T12:21:23;15.25;;;7.95;;
43114;SDS011;28727;50.068;14.452;2022-11-11T12:30:22;16.20;;;8.30;;
43114;SDS011;28727;50.068;14.452;2022-11-11T12:33:37;15.02;;;8.32;;
43114;SDS011;28727;50.068;14.452;2022-11-11T12:36:35;11.73;;;7.22;;
43114;SDS011;28727;50.068;14.452;2022-11-11T12:49:20;17.38;;;8.90;;
43114;SDS011;28727;50.068;14.452;2022-11-11T12:58:54;18.55;;;8.50;;
43114;SDS011;28727;50.068;14.452;2022-11-11T13:02:01;18.23;;;9.30;;
43114;SDS011;28727;50.068;14.452;2022-11-11T13:05:09;16.20;;;8.55;;
43114;SDS011;28727;50.068;14.452;2022-11-11T13:11:24;15.32;;;7.68;;
43114;SDS011;28727;50.068;14.452;2022-11-11T13:17:45;14.52;;;7.63;;
43114;SDS011;28727;50.068;14.452;2022-11-11T13:23:34;14.77;;;7.45;;
43114;SDS011;28727;50.068;14.452;2022-11-11T13:26:36;11.85;;;7.15;;
43114;SDS011;28727;50.068;14.452;2022-11-11T13:29:36;13.10;;;7.32;;
43114;SDS011;28727;50.068;14.452;2022-11-11T13:32:32;15.50;;;7.28;;
43114;SDS011;28727;50.068;14.452;2022-11-11T13:35:29;12.50;;;7.85;;
43114;SDS011;28727;50.068;14.452;2022-11-11T13:38:59;13.32;;;7.88;;
43114;SDS011;28727;50.068;14.452;2022-11-11T13:41:54;20.30;;;8.20;;
43114;SDS011;28727;50.068;14.452;2022-11-11T13:44:50;14.85;;;7.05;;
43114;SDS011;28727;50.068;14.452;2022-11-11T13:47:43;14.68;;;7.20;;
43114;SDS011;28727;50.068;14.452;2022-11-11T13:50:36;15.10;;;6.50;;
43114;SDS011;28727;50.068;14.452;2022-11-11T13:53:31;11.23;;;6.97;;
43114;SDS011;28727;50.068;14.452;2022-11-11T13:56:42;12.25;;;6.70;;
43114;SDS011;28727;50.068;14.452;2022-11-11T13:59:36;13.20;;;6.55;;
43114;SDS011;28727;50.068;14.452;2022-11-11T14:02:30;12.70;;;6.60;;
43114;SDS011;28727;50.068;14.452;2022-11-11T14:05:24;18.77;;;7.68;;
43114;SDS011;28727;50.068;14.452;2022-11-11T14:11:34;13.98;;;7.57;;
43114;SDS011;28727;50.068;14.452;2022-11-11T14:17:20;15.20;;;7.30;;
43114;SDS011;28727;50.068;14.452;2022-11-11T14:26:25;11.93;;;7.22;;
43114;SDS011;28727;50.068;14.452;2022-11-11T14:29:17;14.90;;;7.50;;
43114;SDS011;28727;50.068;14.452;2022-11-11T14:52:33;14.27;;;6.65;;
43114;SDS011;28727;50.068;14.452;2022-11-11T14:55:18;14.73;;;7.80;;
43114;SDS011;28727;50.068;14.452;2022-11-11T14:58:13;15.88;;;7.82;;
43114;SDS011;28727;50.068;14.452;2022-11-11T15:01:17;22.55;;;7.90;;
43114;SDS011;28727;50.068;14.452;2022-11-11T15:04:09;16.48;;;7.38;;
43114;SDS011;28727;50.068;14.452;2022-11-11T15:07:01;18.73;;;10.75;;
43114;SDS011;28727;50.068;14.452;2022-11-11T15:12:52;17.70;;;8.68;;
43114;SDS011;28727;50.068;14.452;2022-11-11T15:22:29;21.88;;;11.05;;
43114;SDS011;28727;50.068;14.452;2022-11-11T15:29:00;23.15;;;9.27;;
43114;SDS011;28727;50.068;14.452;2022-11-11T15:38:17;17.23;;;9.10;;
43114;SDS011;28727;50.068;14.452;2022-11-11T15:41:25;17.10;;;8.88;;
43114;SDS011;28727;50.068;14.452;2022-11-11T15:44:27;18.63;;;9.15;;
43114;SDS011;28727;50.068;14.452;2022-11-11T15:47:20;22.20;;;10.23;;
43114;SDS011;28727;50.068;14.452;2022-11-11T15:53:12;19.55;;;9.35;;
43114;SDS011;28727;50.068;14.452;2022-11-11T15:56:04;18.98;;;9.77;;
43114;SDS011;28727;50.068;14.452;2022-11-11T15:58:54;15.77;;;8.60;;
43114;SDS011;28727;50.068;14.452;2022-11-11T16:01:44;14.48;;;7.90;;
43114;SDS011;28727;50.068;14.452;2022-11-11T16:04:35;15.35;;;7.15;;
43114;SDS011;28727;50.068;14.452;2022-11-11T16:07:45;20.33;;;9.38;;
43114;SDS011;28727;50.068;14.452;2022-11-11T16:10:42;14.68;;;8.23;;
43114;SDS011;28727;50.068;14.452;2022-11-11T16:13:37;19.20;;;8.45;;
43114;SDS011;28727;50.068;14.452;2022-11-11T16:16:56;24.13;;;11.35;;
43114;SDS011;28727;50.068;14.452;2022-11-11T16:19:49;27.10;;;10.70;;
43114;SDS011;28727;50.068;14.452;2022-11-11T16:22:42;25.30;;;10.43;;
43114;SDS011;28727;50.068;14.452;2022-11-11T16:25:35;22.63;;;11.52;;
43114;SDS011;28727;50.068;14.452;2022-11-11T16:28:26;21.83;;;11.02;;
43114;SDS011;28727;50.068;14.452;2022-11-11T16:34:49;18.25;;;9.40;;
43114;SDS011;28727;50.068;14.452;2022-11-11T16:37:48;17.92;;;9.75;;
43114;SDS011;28727;50.068;14.452;2022-11-11T16:40:43;26.92;;;11.80;;
43114;SDS011;28727;50.068;14.452;2022-11-11T16:43:33;23.63;;;12.05;;
43114;SDS011;28727;50.068;14.452;2022-11-11T16:49:25;19.02;;;9.98;;
43114;SDS011;28727;50.068;14.452;2022-11-11T16:52:20;20.83;;;11.20;;
43114;SDS011;28727;50.068;14.452;2022-11-11T16:58:34;19.83;;;10.82;;
43114;SDS011;28727;50.068;14.452;2022-11-11T17:01:40;19.38;;;9.55;;
43114;SDS011;28727;50.068;14.452;2022-11-11T17:07:42;24.23;;;10.98;;
43114;SDS011;28727;50.068;14.452;2022-11-11T17:10:37;22.85;;;10.85;;
43114;SDS011;28727;50.068;14.452;2022-11-11T17:13:29;25.42;;;12.50;;
43114;SDS011;28727;50.068;14.452;2022-11-11T17:16:19;30.70;;;12.95;;
43114;SDS011;28727;50.068;14.452;2022-11-11T17:19:09;24.92;;;13.93;;
43114;SDS011;28727;50.068;14.452;2022-11-11T17:22:04;28.08;;;14.77;;
43114;SDS011;28727;50.068;14.452;2022-11-11T17:24:55;22.77;;;13.07;;
43114;SDS011;28727;50.068;14.452;2022-11-11T17:27:46;25.50;;;13.18;;
43114;SDS011;28727;50.068;14.452;2022-11-11T17:30:36;23.77;;;13.30;;
43114;SDS011;28727;50.068;14.452;2022-11-11T17:33:28;23.70;;;11.68;;
43114;SDS011;28727;50.068;14.452;2022-11-11T17:36:19;20.95;;;11.45;;
43114;SDS011;28727;50.068;14.452;2022-11-11T17:39:09;19.00;;;11.90;;
43114;SDS011;28727;50.068;14.452;2022-11-11T17:41:59;29.20;;;12.48;;
43114;SDS011;28727;50.068;14.452;2022-11-11T17:44:50;31.10;;;14.77;;
43114;SDS011;28727;50.068;14.452;2022-11-11T17:47:40;30.05;;;15.73;;
43114;SDS011;28727;50.068;14.452;2022-11-11T17:50:33;27.73;;;14.85;;
43114;SDS011;28727;50.068;14.452;2022-11-11T17:53:25;32.10;;;14.15;;
43114;SDS011;28727;50.068;14.452;2022-11-11T17:56:16;31.33;;;14.55;;
43114;SDS011;28727;50.068;14.452;2022-11-11T17:59:06;29.40;;;15.52;;
43114;SDS011;28727;50.068;14.452;2022-11-11T18:01:57;26.83;;;15.07;;
43114;SDS011;28727;50.068;14.452;2022-11-11T18:04:48;27.48;;;14.75;;
43114;SDS011;28727;50.068;14.452;2022-11-11T18:07:38;25.48;;;14.18;;
43114;SDS011;28727;50.068;14.452;2022-11-11T18:10:33;26.20;;;14.88;;
43114;SDS011;28727;50.068;14.452;2022-11-11T18:13:24;24.00;;;13.82;;
43114;SDS011;28727;50.068;14.452;2022-11-11T18:16:15;23.60;;;12.93;;
43114;SDS011;28727;50.068;14.452;2022-11-11T18:19:06;26.27;;;13.98;;
43114;SDS011;28727;50.068;14.452;2022-11-11T18:21:56;28.02;;;15.20;;
43114;SDS011;28727;50.068;14.452;2022-11-11T18:24:48;26.17;;;13.77;;
43114;SDS011;28727;50.068;14.452;2022-11-11T18:27:38;23.95;;;13.20;;
43114;SDS011;28727;50.068;14.452;2022-11-11T18:30:28;28.13;;;14.13;;
43114;SDS011;28727;50.068;14.452;2022-11-11T18:33:19;24.25;;;14.30;;
43114;SDS011;28727;50.068;14.452;2022-11-11T18:36:11;27.23;;;14.00;;
43114;SDS011;28727;50.068;14.452;2022-11-11T18:39:03;27.73;;;14.95;;
43114;SDS011;28727;50.068;14.452;2022-11-11T18:41:54;29.30;;;14.88;;
43114;SDS011;28727;50.068;14.452;2022-11-11T18:44:44;26.50;;;15.40;;
43114;SDS011;28727;50.068;14.452;2022-11-11T18:47:34;25.08;;;14.68;;
43114;SDS011;28727;50.068;14.452;2022-11-11T18:50:25;30.02;;;14.48;;
43114;SDS011;28727;50.068;14.452;2022-11-11T18:53:15;27.23;;;14.88;;
43114;SDS011;28727;50.068;14.452;2022-11-11T18:56:09;22.98;;;14.65;;
43114;SDS011;28727;50.068;14.452;2022-11-11T18:59:01;25.90;;;14.48;;
43114;SDS011;28727;50.068;14.452;2022-11-11T19:01:52;23.67;;;14.80;;
43114;SDS011;28727;50.068;14.452;2022-11-11T19:04:44;27.63;;;14.18;;
43114;SDS011;28727;50.068;14.452;2022-11-11T19:07:34;29.70;;;14.50;;
43114;SDS011;28727;50.068;14.452;2022-11-11T19:10:25;29.10;;;14.45;;
43114;SDS011;28727;50.068;14.452;2022-11-11T19:13:15;26.13;;;16.92;;
43114;SDS011;28727;50.068;14.452;2022-11-11T19:16:06;30.48;;;16.67;;
43114;SDS011;28727;50.068;14.452;2022-11-11T19:19:01;23.70;;;14.85;;
43114;SDS011;28727;50.068;14.452;2022-11-11T19:21:51;28.70;;;13.88;;
43114;SDS011;28727;50.068;14.452;2022-11-11T19:24:42;26.17;;;14.57;;